createdAt,value
2022-11-15T00:01:18.394Z,100486.60
2022-11-15T00:06:21.306Z,100483.14
2022-11-15T00:11:24.364Z,100477.70
2022-11-15T00:16:27.413Z,100470.98
2022-11-15T00:21:30.353Z,100461.33
2022-11-15T00:26:33.220Z,100455.88
2022-11-15T00:31:36.125Z,100452.81
2022-11-15T00:36:39.034Z,100440.50
2022-11-15T00:41:41.949Z,100434.60
2022-11-15T00:46:44.840Z,100430.66
2022-11-15T00:51:47.749Z,100423.64
2022-11-15T00:56:50.646Z,100418.40
2022-11-15T01:01:53.552Z,100416.48
2022-11-15T01:06:56.511Z,100410.36
2022-11-15T01:11:59.324Z,100400.31
2022-11-15T01:17:02.270Z,100394.20
2022-11-15T01:22:05.168Z,100389.73
2022-11-15T01:27:08.582Z,100384.58
2022-11-15T01:32:11.896Z,100381.92
2022-11-15T01:37:14.802Z,100381.42
2022-11-15T01:42:17.710Z,100376.16
2022-11-15T01:47:34.024Z,100372.98
2022-11-15T01:52:39.080Z,100360.84
2022-11-15T01:57:44.338Z,100355.60
2022-11-15T02:02:47.650Z,100345.80
2022-11-15T02:07:51.169Z,100338.30
2022-11-15T02:12:56.839Z,100340.45
2022-11-15T02:18:14.081Z,100332.00
2022-11-15T02:23:49.040Z,100323.48
2022-11-15T02:29:20.961Z,100316.54
2022-11-15T02:34:39.185Z,100312.06
2022-11-15T02:39:50.383Z,100309.05
2022-11-15T02:44:57.280Z,100303.20
2022-11-15T02:50:06.328Z,100295.39
2022-11-15T02:55:31.249Z,100294.20
2022-11-15T03:00:40.860Z,100295.11
2022-11-15T03:05:54.551Z,100288.69
2022-11-15T03:11:16.829Z,100278.10
2022-11-15T03:16:27.349Z,100268.12
2022-11-15T03:21:32.233Z,100259.38
2022-11-15T03:26:39.993Z,100252.22
2022-11-15T03:31:51.363Z,100250.06
2022-11-15T03:36:55.479Z,100245.73
2022-11-15T03:42:13.676Z,100243.32
2022-11-15T03:47:30.207Z,100239.16
2022-11-15T03:52:35.570Z,100231.63
2022-11-15T03:57:38.774Z,100231.64
2022-11-15T04:02:41.678Z,100228.59
2022-11-15T04:07:44.480Z,100222.91
2022-11-15T04:12:48.765Z,100216.63
2022-11-15T04:17:54.896Z,100214.61
2022-11-15T04:23:17.973Z,100210.79
2022-11-15T04:28:21.080Z,100207.73
2022-11-15T04:33:24.410Z,100206.77
2022-11-15T04:38:27.300Z,100210.25
2022-11-15T04:43:31.289Z,100206.64
2022-11-15T04:48:34.441Z,100201.15
2022-11-15T04:53:37.345Z,100201.19
2022-11-15T04:58:40.165Z,100202.75
2022-11-15T05:04:02.403Z,100202.80
2022-11-15T05:09:05.511Z,100204.52
2022-11-15T05:14:08.622Z,100204.06
2022-11-15T05:19:11.873Z,100199.49
2022-11-15T05:24:14.939Z,100196.93
2022-11-15T05:29:17.844Z,100191.43
2022-11-15T05:34:22.796Z,100186.18
2022-11-15T05:39:27.131Z,100183.14
2022-11-15T05:44:30.362Z,100186.88
2022-11-15T05:49:37.041Z,100184.08
2022-11-15T05:54:40.435Z,100185.83
2022-11-15T05:59:44.566Z,100190.90
2022-11-15T06:04:47.492Z,100187.63
2022-11-15T06:09:50.396Z,100190.11
2022-11-15T06:14:53.278Z,100192.99
2022-11-15T06:19:56.821Z,100188.48
2022-11-15T06:25:05.025Z,100190.09
2022-11-15T06:30:09.373Z,100186.00
2022-11-15T06:35:12.496Z,100181.31
2022-11-15T06:40:16.078Z,100178.55
2022-11-15T06:45:19.028Z,100187.38
2022-11-15T06:50:22.470Z,100198.39
2022-11-15T06:55:25.361Z,100200.49
2022-11-15T07:00:28.260Z,100199.11
2022-11-15T07:05:31.458Z,100203.15
2022-11-15T07:10:34.464Z,100204.94
2022-11-15T07:15:37.379Z,100207.35
2022-11-15T07:20:41.325Z,100206.33
2022-11-15T07:25:44.207Z,100201.52
2022-11-15T07:30:47.312Z,100199.70
2022-11-15T07:35:50.731Z,100195.33
2022-11-15T07:41:06.335Z,100191.62
2022-11-15T07:46:10.690Z,100188.31
2022-11-15T07:51:16.398Z,100182.17
2022-11-15T07:56:20.062Z,100179.83
2022-11-15T08:01:23.176Z,100173.08
2022-11-15T08:06:26.173Z,100176.59
2022-11-15T08:11:29.049Z,100181.23
2022-11-15T08:16:31.987Z,100172.74
2022-11-15T08:21:34.901Z,100166.02
2022-11-15T08:26:38.000Z,100160.61
2022-11-15T08:31:41.107Z,100164.80
2022-11-15T08:36:46.109Z,100168.16
2022-11-15T08:41:49.370Z,100167.33
2022-11-15T08:46:52.588Z,100160.77
2022-11-15T08:51:55.692Z,100158.06
2022-11-15T08:56:58.905Z,100157.58
2022-11-15T09:02:01.825Z,100158.18
2022-11-15T09:07:04.902Z,100158.04
2022-11-15T09:12:08.891Z,100162.15
2022-11-15T09:17:11.851Z,100166.94
2022-11-15T09:22:14.859Z,100165.84
2022-11-15T09:27:17.769Z,100159.52
2022-11-15T09:32:20.772Z,100152.08
2022-11-15T09:37:23.777Z,100146.45
2022-11-15T09:42:38.010Z,100145.04
2022-11-15T09:48:05.321Z,100132.20
2022-11-15T09:53:50.799Z,100126.55
2022-11-15T09:58:58.645Z,100126.60
2022-11-15T10:04:01.741Z,100125.06
2022-11-15T10:09:14.696Z,100122.27
2022-11-15T10:14:26.546Z,100122.15
2022-11-15T10:20:04.057Z,100113.80
2022-11-15T10:25:21.579Z,100109.52
2022-11-15T10:30:37.684Z,100113.34
2022-11-15T10:35:40.896Z,100108.77
2022-11-15T10:40:44.930Z,100105.69
2022-11-15T10:45:48.433Z,100105.59
2022-11-15T10:50:53.270Z,100107.04
2022-11-15T10:56:02.550Z,100105.08
2022-11-15T11:01:21.409Z,100110.61
2022-11-15T11:06:24.437Z,100106.83
2022-11-15T11:11:47.934Z,100109.70
2022-11-15T11:17:20.422Z,100104.89
2022-11-15T11:22:32.951Z,100100.88
2022-11-15T11:28:00.740Z,100088.60
2022-11-15T11:33:25.252Z,100081.98
2022-11-15T11:38:40.081Z,100081.27
2022-11-15T11:44:11.817Z,100076.20
2022-11-15T11:49:39.401Z,100071.30
2022-11-15T11:55:27.563Z,100069.91
2022-11-15T12:00:36.160Z,100057.70
2022-11-15T12:05:41.765Z,100048.56
2022-11-15T12:10:48.973Z,100050.35
2022-11-15T12:16:07.454Z,100049.40
2022-11-15T12:21:28.135Z,100047.80
2022-11-15T12:26:38.136Z,100052.27
2022-11-15T12:31:45.045Z,100051.60
2022-11-15T12:36:50.971Z,100044.98
2022-11-15T12:41:56.780Z,100041.95
2022-11-15T12:47:01.017Z,100039.73
2022-11-15T12:52:04.944Z,100035.67
2022-11-15T12:57:07.833Z,100039.75
2022-11-15T13:02:22.429Z,100040.21
2022-11-15T13:07:40.967Z,100039.40
2022-11-15T13:12:47.488Z,100034.77
2022-11-15T13:17:52.235Z,100028.20
2022-11-15T13:23:15.925Z,100030.77
2022-11-15T13:28:25.653Z,100026.80
2022-11-15T13:33:36.725Z,100022.97
2022-11-15T13:38:41.228Z,100019.52
2022-11-15T13:43:44.949Z,100021.13
2022-11-15T13:48:53.186Z,100016.52
2022-11-15T13:54:08.199Z,100012.90
2022-11-15T13:59:26.562Z,100009.59
2022-11-15T14:04:34.837Z,100008.17
2022-11-15T14:09:39.480Z,100009.77
2022-11-15T14:14:48.963Z,100003.20
2022-11-15T14:19:52.479Z,100003.30
2022-11-15T14:25:26.733Z,100002.13
2022-11-15T14:30:29.634Z,100000.98
2022-11-15T14:35:32.537Z,99999.60
2022-11-15T14:40:35.394Z,99995.56
2022-11-15T14:45:39.432Z,99992.34
2022-11-15T14:50:42.481Z,99985.05
2022-11-15T14:55:45.899Z,99979.03
2022-11-15T15:00:48.901Z,99979.31
2022-11-15T15:05:51.804Z,99974.44
2022-11-15T15:10:54.712Z,99973.64
2022-11-15T15:15:57.614Z,99974.19
2022-11-15T15:21:08.121Z,99973.93
2022-11-15T15:26:11.119Z,99969.01
2022-11-15T15:31:14.009Z,99965.06
2022-11-15T15:36:19.674Z,99967.17
2022-11-15T15:41:22.586Z,99967.10
2022-11-15T15:46:25.891Z,99963.45
2022-11-15T15:51:28.795Z,99964.64
2022-11-15T15:56:31.700Z,99958.10
2022-11-15T16:01:34.597Z,99957.74
2022-11-15T16:06:41.423Z,99953.52
2022-11-15T16:11:48.150Z,99952.77
2022-11-15T16:16:51.100Z,99953.35
2022-11-15T16:21:54.104Z,99959.67
2022-11-15T16:26:57.114Z,99961.02
2022-11-15T16:32:00.123Z,99968.73
2022-11-15T16:37:03.024Z,99967.36
2022-11-15T16:42:06.032Z,99961.58
2022-11-15T16:47:18.256Z,99956.23
2022-11-15T16:52:21.677Z,99955.73
2022-11-15T16:57:25.084Z,99956.64
2022-11-15T17:02:28.092Z,99953.61
2022-11-15T17:07:31.133Z,99952.20
2022-11-15T17:12:35.451Z,99954.10
2022-11-15T17:17:38.750Z,99950.18
2022-11-15T17:22:41.621Z,99948.03
2022-11-15T17:27:44.559Z,99945.42
2022-11-15T17:32:48.077Z,99941.70
2022-11-15T17:37:50.985Z,99942.36
2022-11-15T17:42:53.990Z,99947.13
2022-11-15T17:47:57.508Z,99951.70
2022-11-15T17:53:00.515Z,99955.38
2022-11-15T17:58:03.420Z,99960.55
2022-11-15T18:03:06.321Z,99958.63
2022-11-15T18:08:15.368Z,99952.63
2022-11-15T18:13:18.479Z,99954.89
2022-11-15T18:18:21.997Z,99950.20
2022-11-15T18:23:24.907Z,99946.82
2022-11-15T18:28:35.750Z,99947.35
2022-11-15T18:33:39.111Z,99945.52
2022-11-15T18:38:42.288Z,99953.79
2022-11-15T18:43:45.611Z,99962.25
2022-11-15T18:48:52.738Z,99962.55
2022-11-15T18:53:57.147Z,99961.08
2022-11-15T18:59:02.512Z,99954.65
2022-11-15T19:04:14.666Z,99959.19
2022-11-15T19:09:19.616Z,99959.94
2022-11-15T19:14:24.463Z,99960.08
2022-11-15T19:19:28.698Z,99953.38
2022-11-15T19:24:33.481Z,99948.89
2022-11-15T19:29:36.347Z,99944.36
2022-11-15T19:34:41.841Z,99944.30
2022-11-15T19:39:44.715Z,99943.13
2022-11-15T19:44:47.825Z,99945.31
2022-11-15T19:49:50.626Z,99939.34
2022-11-15T19:54:54.249Z,99935.74
2022-11-15T19:59:57.155Z,99935.48
2022-11-15T20:05:00.168Z,99932.36
2022-11-15T20:10:03.164Z,99930.11
2022-11-15T20:15:06.915Z,99919.70
2022-11-15T20:20:11.691Z,99913.80
2022-11-15T20:25:15.562Z,99919.14
2022-11-15T20:30:18.572Z,99921.56
2022-11-15T20:35:21.472Z,99925.27
2022-11-15T20:40:24.687Z,99928.38
2022-11-15T20:45:27.590Z,99931.95
2022-11-15T20:50:44.003Z,99931.84
2022-11-15T20:55:49.618Z,99926.34
2022-11-15T21:00:55.869Z,99926.73
2022-11-15T21:05:59.174Z,99911.17
2022-11-15T21:11:20.613Z,99902.86
2022-11-15T21:16:24.029Z,99904.56
2022-11-15T21:21:26.911Z,99902.06
2022-11-15T21:26:29.848Z,99901.48
2022-11-15T21:31:33.194Z,99909.08
2022-11-15T21:36:36.670Z,99903.98
2022-11-15T21:41:40.088Z,99892.86
2022-11-15T21:46:43.235Z,99886.23
2022-11-15T21:51:46.099Z,99888.49
2022-11-15T21:56:49.621Z,99885.50
2022-11-15T22:02:11.057Z,99878.85
2022-11-15T22:07:14.392Z,99878.95
2022-11-15T22:12:17.492Z,99867.23
2022-11-15T22:17:20.494Z,99863.63
2022-11-15T22:22:23.605Z,99870.65
2022-11-15T22:27:26.609Z,99871.23
2022-11-15T22:32:29.620Z,99878.77
2022-11-15T22:37:32.521Z,99885.08
2022-11-15T22:42:35.532Z,99880.33
2022-11-15T22:47:38.533Z,99882.48
2022-11-15T22:52:41.643Z,99878.63
2022-11-15T22:57:44.855Z,99875.29
2022-11-15T23:02:51.801Z,99869.96
2022-11-15T23:07:56.299Z,99864.16
2022-11-15T23:13:18.983Z,99855.66
2022-11-15T23:18:21.968Z,99856.52
2022-11-15T23:23:24.873Z,99854.67
2022-11-15T23:28:27.880Z,99852.25
2022-11-15T23:33:49.216Z,99854.09
2022-11-15T23:38:52.507Z,99853.06
2022-11-15T23:43:55.436Z,99846.27
2022-11-15T23:48:58.852Z,99840.82
2022-11-15T23:54:02.062Z,99834.79
2022-11-15T23:59:05.926Z,99831.63
